createdAt,value
2022-10-05T00:00:57.101Z,11.83
2022-10-05T00:01:57.099Z,11.85
2022-10-05T00:02:57.042Z,11.85
2022-10-05T00:03:57.085Z,11.87
2022-10-05T00:04:57.090Z,11.86
2022-10-05T00:05:57.036Z,11.86
2022-10-05T00:06:57.004Z,11.85
2022-10-05T00:07:56.991Z,11.86
2022-10-05T00:09:03.538Z,11.87
2022-10-05T00:09:56.956Z,11.87
2022-10-05T00:10:56.956Z,11.96
2022-10-05T00:11:56.940Z,12.01
2022-10-05T00:12:56.921Z,12.06
2022-10-05T00:13:56.918Z,12.08
2022-10-05T00:14:56.903Z,12.09
2022-10-05T00:15:56.911Z,12.12
2022-10-05T00:16:56.925Z,12.13
2022-10-05T00:17:56.864Z,12.13
2022-10-05T00:18:56.856Z,12.15
2022-10-05T00:19:56.850Z,12.16
2022-10-05T00:20:56.849Z,12.19
2022-10-05T00:21:56.839Z,12.19
2022-10-05T00:22:56.810Z,12.19
2022-10-05T00:23:56.821Z,12.20
2022-10-05T00:24:56.799Z,12.20
2022-10-05T00:25:56.804Z,12.23
2022-10-05T00:26:58.146Z,12.21
2022-10-05T00:27:56.796Z,12.23
2022-10-05T00:28:56.748Z,12.23
2022-10-05T00:29:56.734Z,12.26
2022-10-05T00:30:56.773Z,12.24
2022-10-05T00:31:56.770Z,12.24
2022-10-05T00:32:59.665Z,12.26
2022-10-05T00:33:56.695Z,12.27
2022-10-05T00:34:56.681Z,12.27
2022-10-05T00:35:56.681Z,12.27
2022-10-05T00:36:56.654Z,12.26
2022-10-05T00:37:56.652Z,12.26
2022-10-05T00:38:56.636Z,12.27
2022-10-05T00:39:56.623Z,12.27
2022-10-05T00:40:56.630Z,12.30
2022-10-05T00:41:56.606Z,12.29
2022-10-05T00:42:56.587Z,12.30
2022-10-05T00:43:56.578Z,12.29
2022-10-05T00:44:56.567Z,12.30
2022-10-05T00:45:56.643Z,12.30
2022-10-05T00:46:56.541Z,12.30
2022-10-05T00:47:56.540Z,12.30
2022-10-05T00:48:56.517Z,12.30
2022-10-05T00:49:56.510Z,12.31
2022-10-05T00:50:56.496Z,12.31
2022-10-05T00:51:56.512Z,12.31
2022-10-05T00:52:56.483Z,12.30
2022-10-05T00:53:56.466Z,12.30
2022-10-05T00:54:56.455Z,12.29
2022-10-05T00:55:56.442Z,12.27
2022-10-05T00:56:56.447Z,12.26
2022-10-05T00:57:56.421Z,12.26
2022-10-05T00:58:56.401Z,12.26
2022-10-05T00:59:56.401Z,12.26
2022-10-05T01:00:56.421Z,12.26
2022-10-05T01:01:56.456Z,12.27
2022-10-05T01:02:56.360Z,12.29
2022-10-05T01:03:56.362Z,12.30
2022-10-05T01:04:56.349Z,12.33
2022-10-05T01:05:56.340Z,12.34
2022-10-05T01:06:56.341Z,12.33
2022-10-05T01:07:56.323Z,12.30
2022-10-05T01:08:56.302Z,12.31
2022-10-05T01:09:56.283Z,12.31
2022-10-05T01:10:56.273Z,12.31
2022-10-05T01:11:56.287Z,12.33
2022-10-05T01:12:56.252Z,12.31
2022-10-05T01:13:56.240Z,12.33
2022-10-05T01:14:56.229Z,12.34
2022-10-05T01:15:56.224Z,12.34
2022-10-05T01:16:56.317Z,12.34
2022-10-05T01:17:56.190Z,12.34
2022-10-05T01:18:56.185Z,12.33
2022-10-05T01:19:56.173Z,12.34
2022-10-05T01:20:56.170Z,12.34
2022-10-05T01:21:56.172Z,12.34
2022-10-05T01:22:56.147Z,12.37
2022-10-05T01:23:56.130Z,12.37
2022-10-05T01:24:56.125Z,12.38
2022-10-05T01:25:56.109Z,12.39
2022-10-05T01:26:56.113Z,12.41
2022-10-05T01:27:56.120Z,12.42
2022-10-05T01:28:56.076Z,12.42
2022-10-05T01:29:56.060Z,12.42
2022-10-05T01:30:56.052Z,12.42
2022-10-05T01:31:56.130Z,12.44
2022-10-05T01:32:56.030Z,12.44
2022-10-05T01:33:56.020Z,12.44
2022-10-05T01:34:56.013Z,12.46
2022-10-05T01:35:56.011Z,12.44
2022-10-05T01:36:55.998Z,12.46
2022-10-05T01:37:55.989Z,12.46
2022-10-05T01:38:55.961Z,12.46
2022-10-05T01:39:55.954Z,12.46
2022-10-05T01:40:55.933Z,12.46
2022-10-05T01:41:55.949Z,12.48
2022-10-05T01:42:55.922Z,12.46
2022-10-05T01:43:55.906Z,12.46
2022-10-05T01:44:55.893Z,12.46
2022-10-05T01:45:55.963Z,12.45
2022-10-05T01:46:55.889Z,12.45
2022-10-05T01:47:55.866Z,12.45
2022-10-05T01:48:55.852Z,12.46
2022-10-05T01:49:55.844Z,12.45
2022-10-05T01:50:55.828Z,12.45
2022-10-05T01:51:55.831Z,12.46
2022-10-05T01:52:55.818Z,12.45
2022-10-05T01:53:55.799Z,12.44
2022-10-05T01:54:55.789Z,12.45
2022-10-05T01:55:55.777Z,12.45
2022-10-05T01:56:55.771Z,12.45
2022-10-05T01:57:55.754Z,12.45
2022-10-05T01:58:55.737Z,12.46
2022-10-05T01:59:55.725Z,12.46
2022-10-05T02:00:55.753Z,12.48
2022-10-05T02:01:55.788Z,12.51
2022-10-05T02:02:55.701Z,12.54
2022-10-05T02:03:55.686Z,12.57
2022-10-05T02:05:03.301Z,12.59
2022-10-05T02:05:55.667Z,12.62
2022-10-05T02:06:55.668Z,12.64
2022-10-05T02:07:55.638Z,12.67
2022-10-05T02:08:55.624Z,12.69
2022-10-05T02:09:55.615Z,12.70
2022-10-05T02:10:55.607Z,12.70
2022-10-05T02:11:55.612Z,12.71
2022-10-05T02:12:55.589Z,12.75
2022-10-05T02:13:55.575Z,12.77
2022-10-05T02:14:55.570Z,12.78
2022-10-05T02:15:55.563Z,12.78
2022-10-05T02:16:55.553Z,12.81
2022-10-05T02:17:55.533Z,12.79
2022-10-05T02:18:55.518Z,12.84
2022-10-05T02:19:55.512Z,12.88
2022-10-05T02:20:55.499Z,12.88
2022-10-05T02:21:55.508Z,12.92
2022-10-05T02:22:55.471Z,12.89
2022-10-05T02:23:55.458Z,12.93
2022-10-05T02:24:55.452Z,12.95
2022-10-05T02:25:55.449Z,12.95
2022-10-05T02:26:55.448Z,12.96
2022-10-05T02:27:55.459Z,12.95
2022-10-05T02:28:55.418Z,12.95
2022-10-05T02:29:55.398Z,12.95
2022-10-05T02:30:55.382Z,12.95
2022-10-05T02:31:55.446Z,12.95
2022-10-05T02:32:55.376Z,12.95
2022-10-05T02:33:55.346Z,12.95
2022-10-05T02:34:55.349Z,12.96
2022-10-05T02:35:55.328Z,12.93
2022-10-05T02:36:55.335Z,12.95
2022-10-05T02:37:55.309Z,12.95
2022-10-05T02:38:55.297Z,12.96
2022-10-05T02:39:55.288Z,12.95
2022-10-05T02:40:55.287Z,12.96
2022-10-05T02:41:55.283Z,12.96
2022-10-05T02:42:55.253Z,12.95
2022-10-05T02:43:55.241Z,12.95
2022-10-05T02:44:55.234Z,12.95
2022-10-05T02:45:55.251Z,12.95
2022-10-05T02:46:57.507Z,12.99
2022-10-05T02:47:55.195Z,12.99
2022-10-05T02:48:55.179Z,12.99
2022-10-05T02:49:55.176Z,13.00
2022-10-05T02:50:55.157Z,13.00
2022-10-05T02:51:55.176Z,13.00
2022-10-05T02:52:55.138Z,12.99
2022-10-05T02:53:55.135Z,12.99
2022-10-05T02:54:55.130Z,12.97
2022-10-05T02:55:55.106Z,12.97
2022-10-05T02:56:55.117Z,12.96
2022-10-05T02:57:55.089Z,12.97
2022-10-05T02:58:55.071Z,12.96
2022-10-05T02:59:55.065Z,12.96
2022-10-05T03:00:55.116Z,12.97
2022-10-05T03:01:55.118Z,12.96
2022-10-05T03:02:55.034Z,12.95
2022-10-05T03:03:55.026Z,12.95
2022-10-05T03:04:55.008Z,12.96
2022-10-05T03:05:55.000Z,12.95
2022-10-05T03:06:55.004Z,12.95
2022-10-05T03:07:54.980Z,12.93
2022-10-05T03:08:54.966Z,12.93
2022-10-05T03:10:00.150Z,12.92
2022-10-05T03:10:54.953Z,12.92
2022-10-05T03:11:54.960Z,12.95
2022-10-05T03:12:54.926Z,12.95
2022-10-05T03:13:54.908Z,12.93
2022-10-05T03:14:54.897Z,12.93
2022-10-05T03:15:54.908Z,12.93
2022-10-05T03:16:54.896Z,12.95
2022-10-05T03:17:54.873Z,12.95
2022-10-05T03:18:54.857Z,12.96
2022-10-05T03:19:54.845Z,12.96
2022-10-05T03:20:54.838Z,12.95
2022-10-05T03:21:54.835Z,12.95
2022-10-05T03:22:54.809Z,12.95
2022-10-05T03:23:54.799Z,12.95
2022-10-05T03:24:54.782Z,12.97
2022-10-05T03:25:54.787Z,13.00
2022-10-05T03:26:54.798Z,13.06
2022-10-05T03:27:54.773Z,13.07
2022-10-05T03:28:54.749Z,13.09
2022-10-05T03:29:54.734Z,13.09
2022-10-05T03:30:54.793Z,13.09
2022-10-05T03:31:54.713Z,13.09
2022-10-05T03:32:54.715Z,13.11
2022-10-05T03:33:54.689Z,13.11
2022-10-05T03:34:54.670Z,13.07
2022-10-05T03:35:54.674Z,13.07
2022-10-05T03:36:54.654Z,13.07
2022-10-05T03:37:54.657Z,13.06
2022-10-05T03:38:54.632Z,13.06
2022-10-05T03:39:54.622Z,13.09
2022-10-05T03:40:54.608Z,13.07
2022-10-05T03:41:54.601Z,13.09
2022-10-05T03:42:54.605Z,13.09
2022-10-05T03:43:54.578Z,13.11
2022-10-05T03:44:54.563Z,13.09
2022-10-05T03:45:54.593Z,13.11
2022-10-05T03:46:54.542Z,13.07
2022-10-05T03:47:58.995Z,13.09
2022-10-05T03:48:54.524Z,13.07
2022-10-05T03:49:54.511Z,13.06
2022-10-05T03:50:54.496Z,13.06
2022-10-05T03:51:54.487Z,13.07
2022-10-05T03:52:54.492Z,13.04
2022-10-05T03:53:54.473Z,13.06
2022-10-05T03:54:54.452Z,13.04
2022-10-05T03:55:54.446Z,13.03
2022-10-05T03:56:54.440Z,13.04
2022-10-05T03:57:54.444Z,13.03
2022-10-05T03:58:54.415Z,13.03
2022-10-05T03:59:54.405Z,13.03
2022-10-05T04:00:54.395Z,13.03
2022-10-05T04:01:54.429Z,13.04
2022-10-05T04:02:54.437Z,13.04
2022-10-05T04:03:54.350Z,13.04
2022-10-05T04:04:54.340Z,13.06
2022-10-05T04:05:54.339Z,13.04
2022-10-05T04:06:54.319Z,13.07
2022-10-05T04:07:54.320Z,13.09
2022-10-05T04:08:54.299Z,13.12
2022-10-05T04:09:54.289Z,13.12
2022-10-05T04:10:54.283Z,13.17
2022-10-05T04:11:54.266Z,13.18
2022-10-05T04:12:54.267Z,13.22
2022-10-05T04:13:54.243Z,13.27
2022-10-05T04:14:54.231Z,13.29
2022-10-05T04:15:54.299Z,13.32
2022-10-05T04:16:54.212Z,13.32
2022-10-05T04:17:54.215Z,13.32
2022-10-05T04:18:54.189Z,13.32
2022-10-05T04:19:54.176Z,13.30
2022-10-05T04:20:54.170Z,13.29
2022-10-05T04:21:54.156Z,13.27
2022-10-05T04:22:54.164Z,13.25
2022-10-05T04:23:54.139Z,13.24
2022-10-05T04:24:54.116Z,13.22
2022-10-05T04:25:54.120Z,13.22
2022-10-05T04:26:54.095Z,13.21
2022-10-05T04:27:54.144Z,13.20
2022-10-05T04:28:54.083Z,13.18
2022-10-05T04:29:54.073Z,13.17
2022-10-05T04:30:54.058Z,13.18
2022-10-05T04:31:54.112Z,13.17
2022-10-05T04:32:54.047Z,13.15
2022-10-05T04:33:54.023Z,13.15
2022-10-05T04:34:54.012Z,13.15
2022-10-05T04:35:53.997Z,13.15
2022-10-05T04:36:53.984Z,13.14
2022-10-05T04:37:53.993Z,13.14
2022-10-05T04:38:53.970Z,13.14
2022-10-05T04:39:53.960Z,13.14
2022-10-05T04:40:53.939Z,13.15
2022-10-05T04:41:53.939Z,13.14
2022-10-05T04:42:53.943Z,13.17
2022-10-05T04:43:53.918Z,13.17
2022-10-05T04:44:57.080Z,13.20
2022-10-05T04:45:53.896Z,13.17
2022-10-05T04:46:53.973Z,13.17
2022-10-05T04:47:53.881Z,13.18
2022-10-05T04:48:53.856Z,13.20
2022-10-05T04:49:53.847Z,13.20
2022-10-05T04:50:53.847Z,13.20
2022-10-05T04:51:53.824Z,13.20
2022-10-05T04:52:53.824Z,13.21
2022-10-05T04:53:53.795Z,13.18
2022-10-05T04:54:53.787Z,13.20
2022-10-05T04:55:53.783Z,13.20
2022-10-05T04:56:53.783Z,13.18
2022-10-05T04:57:53.771Z,13.17
2022-10-05T04:58:53.758Z,13.18
2022-10-05T04:59:53.738Z,13.21
2022-10-05T05:00:53.777Z,13.21
2022-10-05T05:01:53.714Z,13.24
2022-10-05T05:02:53.721Z,13.25
2022-10-05T05:03:53.752Z,13.29
2022-10-05T05:04:53.686Z,13.30
2022-10-05T05:06:15.768Z,13.33
2022-10-05T05:06:53.665Z,13.32
2022-10-05T05:07:53.665Z,13.30
2022-10-05T05:08:53.645Z,13.30
2022-10-05T05:09:53.628Z,13.30
2022-10-05T05:10:53.608Z,13.29
2022-10-05T05:11:53.601Z,13.29
2022-10-05T05:12:53.603Z,13.27
2022-10-05T05:13:53.582Z,13.27
2022-10-05T05:14:53.566Z,13.25
2022-10-05T05:15:53.592Z,13.24
2022-10-05T05:16:53.535Z,13.25
2022-10-05T05:17:53.560Z,13.27
2022-10-05T05:18:53.526Z,13.25
2022-10-05T05:19:53.522Z,13.25
2022-10-05T05:20:53.506Z,13.25
2022-10-05T05:21:53.493Z,13.25
2022-10-05T05:22:53.494Z,13.27
2022-10-05T05:23:53.470Z,13.25
2022-10-05T05:24:53.456Z,13.25
2022-10-05T05:25:53.453Z,13.25
2022-10-05T05:26:53.437Z,13.27
2022-10-05T05:27:53.556Z,13.27
2022-10-05T05:28:53.407Z,13.27
2022-10-05T05:29:53.434Z,13.25
2022-10-05T05:30:53.445Z,13.27
2022-10-05T05:31:53.375Z,13.29
2022-10-05T05:32:53.388Z,13.30
2022-10-05T05:33:53.361Z,13.30
2022-10-05T05:34:53.337Z,13.29
2022-10-05T05:35:53.332Z,13.29
2022-10-05T05:36:53.317Z,13.29
2022-10-05T05:37:53.324Z,13.29
2022-10-05T05:38:53.305Z,13.29
2022-10-05T05:39:53.286Z,13.29
2022-10-05T05:40:53.275Z,13.27
2022-10-05T05:41:53.271Z,13.27
2022-10-05T05:42:53.271Z,13.25
2022-10-05T05:43:53.267Z,13.27
2022-10-05T05:44:53.239Z,13.27
2022-10-05T05:45:53.328Z,13.29
2022-10-05T05:47:03.631Z,13.29
2022-10-05T05:47:53.225Z,13.27
2022-10-05T05:48:53.180Z,13.27
2022-10-05T05:49:53.182Z,13.27
2022-10-05T05:50:53.162Z,13.27
2022-10-05T05:51:53.152Z,13.27
2022-10-05T05:52:53.168Z,13.27
2022-10-05T05:53:53.136Z,13.25
2022-10-05T05:54:53.119Z,13.24
2022-10-05T05:55:53.115Z,13.25
2022-10-05T05:56:53.092Z,13.27
2022-10-05T05:57:53.107Z,13.25
2022-10-05T05:58:53.077Z,13.29
2022-10-05T05:59:53.070Z,13.29
2022-10-05T06:00:53.052Z,13.29
2022-10-05T06:01:53.207Z,13.32
2022-10-05T06:02:53.230Z,13.29
2022-10-05T06:03:53.014Z,13.30
2022-10-05T06:04:53.010Z,13.30
2022-10-05T06:05:53.002Z,13.30
2022-10-05T06:06:52.984Z,13.29
2022-10-05T06:07:52.987Z,13.29
2022-10-05T06:08:52.961Z,13.29
2022-10-05T06:09:59.520Z,13.27
2022-10-05T06:10:52.971Z,13.27
2022-10-05T06:11:52.933Z,13.27
2022-10-05T06:12:52.936Z,13.27
2022-10-05T06:13:52.960Z,13.25
2022-10-05T06:14:52.902Z,13.27
2022-10-05T06:15:53.084Z,13.27
2022-10-05T06:16:52.925Z,13.30
2022-10-05T06:17:52.887Z,13.30
2022-10-05T06:18:52.873Z,13.30
2022-10-05T06:19:52.847Z,13.30
2022-10-05T06:20:52.862Z,13.30
2022-10-05T06:21:52.837Z,13.30
2022-10-05T06:22:52.826Z,13.30
2022-10-05T06:23:52.812Z,13.30
2022-10-05T06:24:52.817Z,13.30
2022-10-05T06:25:52.789Z,13.30
2022-10-05T06:26:52.762Z,13.29
2022-10-05T06:27:52.837Z,13.30
2022-10-05T06:28:52.744Z,13.30
2022-10-05T06:29:52.730Z,13.32
2022-10-05T06:30:52.722Z,13.32
2022-10-05T06:31:57.932Z,13.33
2022-10-05T06:32:52.718Z,13.33
2022-10-05T06:33:52.702Z,13.36
2022-10-05T06:34:52.676Z,13.38
2022-10-05T06:35:52.676Z,13.38
2022-10-05T06:36:52.654Z,13.40
2022-10-05T06:37:52.669Z,13.41
2022-10-05T06:38:52.635Z,13.43
2022-10-05T06:39:53.364Z,13.47
2022-10-05T06:40:52.602Z,13.55
2022-10-05T06:41:52.627Z,13.59
2022-10-05T06:42:52.609Z,13.65
2022-10-05T06:43:52.573Z,13.67
2022-10-05T06:44:52.561Z,13.69
2022-10-05T06:45:52.611Z,13.69
2022-10-05T06:46:52.544Z,13.70
2022-10-05T06:47:52.804Z,13.70
2022-10-05T06:48:52.511Z,13.73
2022-10-05T06:49:52.512Z,13.73
2022-10-05T06:50:52.494Z,13.74
2022-10-05T06:51:52.525Z,13.76
2022-10-05T06:52:52.489Z,13.76
2022-10-05T06:53:52.587Z,13.77
2022-10-05T06:54:52.451Z,13.79
2022-10-05T06:55:52.448Z,13.80
2022-10-05T06:56:52.738Z,13.80
2022-10-05T06:57:52.437Z,13.83
2022-10-05T06:58:52.425Z,13.80
2022-10-05T06:59:52.417Z,13.84
2022-10-05T07:00:52.455Z,13.88
2022-10-05T07:01:52.439Z,13.91
2022-10-05T07:02:52.375Z,13.94
2022-10-05T07:03:52.365Z,13.95
2022-10-05T07:04:52.334Z,13.96
2022-10-05T07:05:52.396Z,14.01
2022-10-05T07:06:52.325Z,14.02
2022-10-05T07:07:52.360Z,14.02
2022-10-05T07:08:52.305Z,14.06
2022-10-05T07:09:52.287Z,14.07
2022-10-05T07:10:52.300Z,14.09
2022-10-05T07:11:57.392Z,14.10
2022-10-05T07:12:52.307Z,14.12
2022-10-05T07:13:52.275Z,14.12
2022-10-05T07:14:52.238Z,14.14
2022-10-05T07:15:52.279Z,14.16
2022-10-05T07:16:52.258Z,14.17
2022-10-05T07:17:52.195Z,14.17
2022-10-05T07:18:52.199Z,14.19
2022-10-05T07:19:52.218Z,14.17
2022-10-05T07:20:52.164Z,14.17
2022-10-05T07:21:52.210Z,14.20
2022-10-05T07:22:52.162Z,14.24
2022-10-05T07:23:52.232Z,14.25
2022-10-05T07:24:52.167Z,14.25
2022-10-05T07:25:52.153Z,14.27
2022-10-05T07:26:52.107Z,14.27
2022-10-05T07:27:52.093Z,14.31
2022-10-05T07:28:52.104Z,14.34
2022-10-05T07:29:52.081Z,14.37
2022-10-05T07:30:52.087Z,14.42
2022-10-05T07:31:52.041Z,14.37
2022-10-05T07:32:52.040Z,14.44
2022-10-05T07:33:52.030Z,14.49
2022-10-05T07:34:52.008Z,14.52
2022-10-05T07:35:51.996Z,14.54
2022-10-05T07:36:54.738Z,14.60
2022-10-05T07:37:51.991Z,14.60
2022-10-05T07:38:51.988Z,14.60
2022-10-05T07:40:00.885Z,14.54
2022-10-05T07:40:51.943Z,14.57
2022-10-05T07:41:51.937Z,14.64
2022-10-05T07:42:52.435Z,14.65
2022-10-05T07:44:02.030Z,14.67
2022-10-05T07:44:51.934Z,14.68
2022-10-05T07:45:51.929Z,14.71
2022-10-05T07:46:51.878Z,14.71
2022-10-05T07:47:51.858Z,14.71
2022-10-05T07:48:51.859Z,14.69
2022-10-05T07:49:51.837Z,14.68
2022-10-05T07:50:51.836Z,14.65
2022-10-05T07:51:51.821Z,14.65
2022-10-05T07:52:51.800Z,14.65
2022-10-05T07:53:51.806Z,14.64
2022-10-05T07:54:51.785Z,14.61
2022-10-05T07:55:51.772Z,14.65
2022-10-05T07:56:51.762Z,14.68
2022-10-05T07:57:51.757Z,14.69
2022-10-05T07:58:51.752Z,14.72
2022-10-05T07:59:51.719Z,14.75
2022-10-05T08:00:51.706Z,14.78
2022-10-05T08:01:51.735Z,14.80
2022-10-05T08:02:51.765Z,14.83
2022-10-05T08:03:51.716Z,14.83
2022-10-05T08:04:51.670Z,14.83
2022-10-05T08:05:51.666Z,14.80
2022-10-05T08:06:51.651Z,14.75
2022-10-05T08:07:51.636Z,14.74
2022-10-05T08:08:51.678Z,14.75
2022-10-05T08:09:51.633Z,14.74
2022-10-05T08:10:51.597Z,14.75
2022-10-05T08:11:51.655Z,14.78
2022-10-05T08:12:51.581Z,14.81
2022-10-05T08:13:51.588Z,14.88
2022-10-05T08:14:51.571Z,14.95
2022-10-05T08:15:51.651Z,15.02
2022-10-05T08:16:51.533Z,15.06
2022-10-05T08:17:51.551Z,15.08
2022-10-05T08:18:51.550Z,15.12
2022-10-05T08:19:51.523Z,15.12
2022-10-05T08:20:51.514Z,15.15
2022-10-05T08:21:51.479Z,15.17
2022-10-05T08:22:51.473Z,15.20
2022-10-05T08:23:51.523Z,15.24
2022-10-05T08:24:51.455Z,15.24
2022-10-05T08:25:51.436Z,15.27
2022-10-05T08:26:51.426Z,15.31
2022-10-05T08:27:51.415Z,15.36
2022-10-05T08:28:51.438Z,15.39
2022-10-05T08:29:51.401Z,15.42
2022-10-05T08:30:51.418Z,15.45
2022-10-05T08:31:51.612Z,15.49
2022-10-05T08:32:51.418Z,15.48
2022-10-05T08:33:51.409Z,15.48
2022-10-05T08:34:51.343Z,15.51
2022-10-05T08:35:51.330Z,15.54
2022-10-05T08:36:53.865Z,15.57
2022-10-05T08:37:51.340Z,15.60
2022-10-05T08:38:51.313Z,15.60
2022-10-05T08:39:51.288Z,15.67
2022-10-05T08:40:51.269Z,15.72
2022-10-05T08:41:51.310Z,15.74
2022-10-05T08:42:51.257Z,15.76
2022-10-05T08:43:51.263Z,15.75
2022-10-05T08:44:51.284Z,15.78
2022-10-05T08:45:51.256Z,15.82
2022-10-05T08:46:51.197Z,15.86
2022-10-05T08:47:51.221Z,15.92
2022-10-05T08:48:51.201Z,15.94
2022-10-05T08:49:51.180Z,15.92
2022-10-05T08:50:51.166Z,15.84
2022-10-05T08:51:51.154Z,15.76
2022-10-05T08:52:51.151Z,15.78
2022-10-05T08:53:51.206Z,15.81
2022-10-05T08:54:51.112Z,15.79
2022-10-05T08:55:51.123Z,15.82
2022-10-05T08:56:51.132Z,15.84
2022-10-05T08:57:51.095Z,15.88
2022-10-05T08:58:51.101Z,15.93
2022-10-05T08:59:51.066Z,15.97
2022-10-05T09:00:51.107Z,15.97
2022-10-05T09:01:51.250Z,16.01
2022-10-05T09:02:51.089Z,16.03
2022-10-05T09:03:51.053Z,16.04
2022-10-05T09:04:51.011Z,16.03
2022-10-05T09:05:51.013Z,16.03
2022-10-05T09:06:51.013Z,16.07
2022-10-05T09:07:51.110Z,16.07
2022-10-05T09:08:50.978Z,16.06
2022-10-05T09:09:51.063Z,16.09
2022-10-05T09:10:50.968Z,16.14
2022-10-05T09:11:50.947Z,16.15
2022-10-05T09:12:50.920Z,16.16
2022-10-05T09:13:50.931Z,16.20
2022-10-05T09:15:01.566Z,16.22
2022-10-05T09:15:50.951Z,16.16
2022-10-05T09:16:50.927Z,16.18
2022-10-05T09:17:50.879Z,16.22
2022-10-05T09:18:50.871Z,16.27
2022-10-05T09:19:50.894Z,16.31
2022-10-05T09:20:50.834Z,16.37
2022-10-05T09:21:50.837Z,16.40
2022-10-05T09:22:50.844Z,16.48
2022-10-05T09:23:50.816Z,16.45
2022-10-05T09:24:50.798Z,16.44
2022-10-05T09:25:50.829Z,16.48
2022-10-05T09:26:50.765Z,16.48
2022-10-05T09:27:50.762Z,16.45
2022-10-05T09:28:51.535Z,16.49
2022-10-05T09:29:50.759Z,16.45
2022-10-05T09:30:50.732Z,16.48
2022-10-05T09:31:50.711Z,16.45
2022-10-05T09:32:50.729Z,16.42
2022-10-05T09:33:50.716Z,16.42
2022-10-05T09:34:50.699Z,16.42
2022-10-05T09:35:50.658Z,16.44
2022-10-05T09:36:50.643Z,16.48
2022-10-05T09:37:50.635Z,16.49
2022-10-05T09:38:50.657Z,16.42
2022-10-05T09:39:50.658Z,16.40
2022-10-05T09:40:50.597Z,16.44
2022-10-05T09:41:50.607Z,16.45
2022-10-05T09:42:50.608Z,16.48
2022-10-05T09:43:50.588Z,16.48
2022-10-05T09:44:50.554Z,16.44
2022-10-05T09:45:50.592Z,16.42
2022-10-05T09:46:50.559Z,16.45
2022-10-05T09:47:50.525Z,16.44
2022-10-05T09:48:50.545Z,16.44
2022-10-05T09:49:50.517Z,16.45
2022-10-05T09:50:50.614Z,16.48
2022-10-05T09:51:50.489Z,16.48
2022-10-05T09:52:50.478Z,16.49
2022-10-05T09:53:50.484Z,16.45
2022-10-05T09:54:50.456Z,16.44
2022-10-05T09:55:50.429Z,16.44
2022-10-05T09:56:50.548Z,16.37
2022-10-05T09:57:53.093Z,16.33
2022-10-05T09:58:50.424Z,16.31
2022-10-05T09:59:50.392Z,16.27
2022-10-05T10:00:58.828Z,16.26
2022-10-05T10:01:50.769Z,16.26
2022-10-05T10:02:50.448Z,16.26
2022-10-05T10:03:50.360Z,16.27
2022-10-05T10:04:50.335Z,16.27
2022-10-05T10:05:50.316Z,16.25
2022-10-05T10:06:50.308Z,16.27
2022-10-05T10:07:50.331Z,16.27
2022-10-05T10:08:50.312Z,16.27
2022-10-05T10:09:50.287Z,16.27
2022-10-05T10:10:50.265Z,16.27
2022-10-05T10:11:50.480Z,16.22
2022-10-05T10:12:50.256Z,16.26
2022-10-05T10:13:50.254Z,16.31
2022-10-05T10:14:50.262Z,16.34
2022-10-05T10:15:50.249Z,16.35
2022-10-05T10:16:50.236Z,16.38
2022-10-05T10:17:50.180Z,16.38
2022-10-05T10:18:50.266Z,16.33
2022-10-05T10:19:50.160Z,16.35
2022-10-05T10:20:50.155Z,16.41
2022-10-05T10:21:50.428Z,16.45
2022-10-05T10:22:50.147Z,16.48
2022-10-05T10:23:50.138Z,16.44
2022-10-05T10:24:50.102Z,16.41
2022-10-05T10:25:50.113Z,16.35
2022-10-05T10:26:50.093Z,16.34
2022-10-05T10:27:52.460Z,16.38
2022-10-05T10:28:50.099Z,16.38
2022-10-05T10:29:50.045Z,16.40
2022-10-05T10:30:50.137Z,16.40
2022-10-05T10:31:50.454Z,16.37
2022-10-05T10:32:50.027Z,16.34
2022-10-05T10:33:50.056Z,16.35
2022-10-05T10:34:49.993Z,16.35
2022-10-05T10:35:50.055Z,16.37
2022-10-05T10:36:50.356Z,16.34
2022-10-05T10:37:49.960Z,16.33
2022-10-05T10:38:49.965Z,16.33
2022-10-05T10:39:49.955Z,16.33
2022-10-05T10:40:49.931Z,16.30
2022-10-05T10:41:49.911Z,16.33
2022-10-05T10:42:49.900Z,16.34
2022-10-05T10:43:49.921Z,16.37
2022-10-05T10:44:49.879Z,16.40
2022-10-05T10:45:49.896Z,16.42
2022-10-05T10:46:50.194Z,16.33
2022-10-05T10:47:49.853Z,16.30
2022-10-05T10:48:49.873Z,16.31
2022-10-05T10:49:49.856Z,16.34
2022-10-05T10:50:49.827Z,16.37
2022-10-05T10:51:49.826Z,16.30
2022-10-05T10:52:49.799Z,16.30
2022-10-05T10:53:49.817Z,16.30
2022-10-05T10:54:49.779Z,16.33
2022-10-05T10:55:49.761Z,16.33
2022-10-05T10:56:50.249Z,16.30
2022-10-05T10:57:49.782Z,16.30
2022-10-05T10:58:49.731Z,16.31
2022-10-05T10:59:49.728Z,16.35
2022-10-05T11:00:49.697Z,16.38
2022-10-05T11:01:50.062Z,16.42
2022-10-05T11:02:49.730Z,16.42
2022-10-05T11:03:49.728Z,16.35
2022-10-05T11:04:49.685Z,16.37
2022-10-05T11:05:49.672Z,16.40
2022-10-05T11:06:49.624Z,16.44
2022-10-05T11:07:49.631Z,16.44
2022-10-05T11:08:49.623Z,16.41
2022-10-05T11:09:49.594Z,16.42
2022-10-05T11:10:49.604Z,16.48
2022-10-05T11:11:49.921Z,16.42
2022-10-05T11:12:49.567Z,16.45
2022-10-05T11:13:49.564Z,16.49
2022-10-05T11:14:49.565Z,16.53
2022-10-05T11:15:49.614Z,16.48
2022-10-05T11:16:49.780Z,16.55
2022-10-05T11:17:49.506Z,16.58
2022-10-05T11:18:49.567Z,16.60
2022-10-05T11:20:05.497Z,16.62
2022-10-05T11:20:49.523Z,16.65
2022-10-05T11:21:49.463Z,16.62
2022-10-05T11:22:49.461Z,16.65
2022-10-05T11:23:49.457Z,16.68
2022-10-05T11:24:49.449Z,16.73
2022-10-05T11:25:49.417Z,16.75
2022-10-05T11:26:49.718Z,16.78
2022-10-05T11:27:49.486Z,16.81
2022-10-05T11:28:49.387Z,16.86
2022-10-05T11:29:49.372Z,16.85
2022-10-05T11:30:51.247Z,16.89
2022-10-05T11:31:49.711Z,16.90
2022-10-05T11:32:49.325Z,16.92
2022-10-05T11:33:49.372Z,16.93
2022-10-05T11:34:49.312Z,16.99
2022-10-05T11:35:49.321Z,16.99
2022-10-05T11:36:49.298Z,16.95
2022-10-05T11:37:49.267Z,16.92
2022-10-05T11:38:49.323Z,16.95
2022-10-05T11:39:49.276Z,16.96
2022-10-05T11:40:49.261Z,16.96
2022-10-05T11:41:49.704Z,16.92
2022-10-05T11:42:49.227Z,16.95
2022-10-05T11:43:49.248Z,16.98
2022-10-05T11:44:49.219Z,16.98
2022-10-05T11:45:49.206Z,16.95
2022-10-05T11:46:49.291Z,16.98
2022-10-05T11:47:49.163Z,16.98
2022-10-05T11:48:49.209Z,17.00
2022-10-05T11:49:49.164Z,17.03
2022-10-05T11:50:49.146Z,16.98
2022-10-05T11:51:49.359Z,16.98
2022-10-05T11:52:49.154Z,17.03
2022-10-05T11:53:49.142Z,17.10
2022-10-05T11:55:09.767Z,17.10
2022-10-05T11:55:49.081Z,17.13
2022-10-05T11:56:52.217Z,17.22
2022-10-05T11:57:49.058Z,17.26
2022-10-05T11:58:49.077Z,17.28
2022-10-05T11:59:49.072Z,17.38
2022-10-05T12:00:49.029Z,17.46
2022-10-05T12:01:49.005Z,17.48
2022-10-05T12:02:49.109Z,17.55
2022-10-05T12:03:49.268Z,17.62
2022-10-05T12:04:48.984Z,17.62
2022-10-05T12:05:48.986Z,17.62
2022-10-05T12:06:49.222Z,17.59
2022-10-05T12:07:48.937Z,17.64
2022-10-05T12:08:48.945Z,17.70
2022-10-05T12:09:56.586Z,17.70
2022-10-05T12:10:48.900Z,17.71
2022-10-05T12:11:48.898Z,17.66
2022-10-05T12:12:48.890Z,17.63
2022-10-05T12:13:48.881Z,17.63
2022-10-05T12:14:48.877Z,17.69
2022-10-05T12:15:48.924Z,17.71
2022-10-05T12:16:48.831Z,17.70
2022-10-05T12:17:48.824Z,17.69
2022-10-05T12:18:48.847Z,17.63
2022-10-05T12:19:48.819Z,17.57
2022-10-05T12:20:48.798Z,17.62
2022-10-05T12:21:48.825Z,17.64
2022-10-05T12:22:48.764Z,17.66
2022-10-05T12:23:48.763Z,17.67
2022-10-05T12:24:48.772Z,17.71
2022-10-05T12:25:48.744Z,17.76
2022-10-05T12:26:48.730Z,17.82
2022-10-05T12:27:48.717Z,17.74
2022-10-05T12:28:48.724Z,17.81
2022-10-05T12:29:48.711Z,17.87
2022-10-05T12:30:48.682Z,17.82
2022-10-05T12:31:48.806Z,17.89
2022-10-05T12:32:48.664Z,17.95
2022-10-05T12:33:48.653Z,18.00
2022-10-05T12:34:48.666Z,18.06
2022-10-05T12:35:49.339Z,18.12
2022-10-05T12:37:05.047Z,18.07
2022-10-05T12:37:48.623Z,18.04
2022-10-05T12:38:48.588Z,17.99
2022-10-05T12:39:48.607Z,18.02
2022-10-05T12:40:48.579Z,18.03
2022-10-05T12:41:48.558Z,18.00
2022-10-05T12:42:48.550Z,18.00
2022-10-05T12:43:48.577Z,18.00
2022-10-05T12:44:48.552Z,17.95
2022-10-05T12:45:48.550Z,17.99
2022-10-05T12:46:48.501Z,18.06
2022-10-05T12:47:53.529Z,18.12
2022-10-05T12:48:48.483Z,18.12
2022-10-05T12:49:48.481Z,18.10
2022-10-05T12:50:48.804Z,18.13
2022-10-05T12:51:48.449Z,18.07
2022-10-05T12:52:48.444Z,18.07